createdAt,value
2022-08-19T00:01:28.962Z,25.94
2022-08-19T00:03:58.108Z,25.89
2022-08-19T00:06:25.771Z,25.86
2022-08-19T00:08:52.934Z,25.77
2022-08-19T00:11:25.452Z,25.73
2022-08-19T00:13:53.586Z,25.68
2022-08-19T00:16:22.785Z,25.63
2022-08-19T00:18:56.520Z,25.59
2022-08-19T00:21:24.577Z,25.54
2022-08-19T00:23:51.789Z,25.47
2022-08-19T00:26:19.013Z,25.37
2022-08-19T00:28:46.297Z,25.33
2022-08-19T00:31:13.614Z,25.30
2022-08-19T00:33:40.989Z,25.27
2022-08-19T00:36:11.181Z,25.25
2022-08-19T00:38:43.364Z,25.20
2022-08-19T00:41:13.642Z,25.17
2022-08-19T00:43:42.150Z,25.13
2022-08-19T00:46:09.789Z,25.08
2022-08-19T00:48:37.566Z,25.02
2022-08-19T00:51:05.685Z,24.98
2022-08-19T00:53:35.265Z,24.93
2022-08-19T00:56:07.286Z,24.91
2022-08-19T00:58:35.900Z,24.86
2022-08-19T01:01:05.376Z,24.80
2022-08-19T01:03:57.251Z,24.75
2022-08-19T01:06:20.745Z,24.72
2022-08-19T01:08:50.180Z,24.69
2022-08-19T01:11:17.992Z,24.68
2022-08-19T01:13:50.021Z,24.64
2022-08-19T01:16:20.058Z,24.63
2022-08-19T01:18:47.593Z,24.63
2022-08-19T01:21:23.053Z,24.61
2022-08-19T01:23:51.831Z,24.56
2022-08-19T01:26:21.194Z,24.52
2022-08-19T01:28:50.648Z,24.43
2022-08-19T01:31:27.101Z,24.38
2022-08-19T01:33:57.289Z,24.35
2022-08-19T01:36:27.486Z,24.35
2022-08-19T01:38:56.562Z,24.32
2022-08-19T01:41:24.775Z,24.27
2022-08-19T01:44:13.805Z,24.25
2022-08-19T01:46:40.413Z,24.24
2022-08-19T01:49:09.176Z,24.25
2022-08-19T01:51:39.771Z,24.20
2022-08-19T01:54:09.488Z,24.21
2022-08-19T01:56:37.073Z,24.19
2022-08-19T01:59:07.453Z,24.16
2022-08-19T02:01:35.810Z,24.10
2022-08-19T02:04:03.842Z,24.06
2022-08-19T02:06:31.303Z,24.02
2022-08-19T02:08:58.601Z,23.97
2022-08-19T02:11:29.082Z,23.86
2022-08-19T02:13:56.620Z,23.81
2022-08-19T02:16:25.101Z,23.76
2022-08-19T02:18:52.438Z,23.72
2022-08-19T02:21:21.393Z,23.69
2022-08-19T02:23:48.870Z,23.63
2022-08-19T02:26:16.618Z,23.59
2022-08-19T02:28:45.317Z,23.56
2022-08-19T02:31:15.795Z,23.49
2022-08-19T02:33:43.026Z,23.46
2022-08-19T02:36:11.615Z,23.43
2022-08-19T02:38:39.627Z,23.37
2022-08-19T02:41:12.028Z,23.33
2022-08-19T02:43:44.347Z,23.29
2022-08-19T02:46:32.289Z,23.24
2022-08-19T02:49:03.194Z,23.19
2022-08-19T02:51:33.973Z,23.16
2022-08-19T02:54:01.742Z,23.14
2022-08-19T02:56:29.152Z,23.10
2022-08-19T02:58:56.593Z,23.06
2022-08-19T03:01:26.594Z,23.01
2022-08-19T03:03:56.492Z,22.98
2022-08-19T03:06:24.294Z,22.93
2022-08-19T03:08:52.013Z,22.90
2022-08-19T03:11:21.855Z,22.87
2022-08-19T03:13:52.793Z,22.83
2022-08-19T03:16:21.350Z,22.81
2022-08-19T03:18:49.449Z,22.77
2022-08-19T03:21:19.907Z,22.72
2022-08-19T03:23:47.476Z,22.71
2022-08-19T03:26:17.081Z,22.72
2022-08-19T03:28:51.371Z,22.71
2022-08-19T03:31:44.049Z,22.70
2022-08-19T03:34:12.654Z,22.70
2022-08-19T03:36:42.446Z,22.71
2022-08-19T03:39:11.622Z,22.72
2022-08-19T03:41:44.969Z,22.73
2022-08-19T03:44:17.007Z,22.76
2022-08-19T03:46:46.803Z,22.75
2022-08-19T03:49:14.728Z,22.76
2022-08-19T03:51:44.057Z,22.77
2022-08-19T03:54:13.946Z,22.80
2022-08-19T03:56:42.829Z,22.79
2022-08-19T03:59:12.653Z,22.82
2022-08-19T04:01:39.955Z,22.85
2022-08-19T04:04:07.211Z,22.89
2022-08-19T04:06:39.633Z,22.89
2022-08-19T04:09:11.404Z,22.88
2022-08-19T04:11:44.583Z,22.88
2022-08-19T04:14:15.200Z,22.87
2022-08-19T04:16:45.418Z,22.91
2022-08-19T04:19:13.283Z,22.99
2022-08-19T04:21:40.534Z,23.04
2022-08-19T04:24:10.394Z,23.06
2022-08-19T04:26:38.552Z,23.08
2022-08-19T04:29:12.491Z,23.01
2022-08-19T04:31:41.947Z,22.96
2022-08-19T04:34:12.030Z,22.99
2022-08-19T04:36:42.311Z,23.03
2022-08-19T04:39:13.741Z,23.08
2022-08-19T04:41:59.779Z,23.18
2022-08-19T04:44:27.282Z,23.35
2022-08-19T04:46:54.517Z,23.45
2022-08-19T04:49:23.890Z,23.56
2022-08-19T04:51:55.025Z,23.66
2022-08-19T04:54:37.043Z,23.82
2022-08-19T04:57:07.886Z,24.06
2022-08-19T04:59:35.980Z,24.22
2022-08-19T05:02:03.413Z,24.41
2022-08-19T05:04:33.344Z,24.56
2022-08-19T05:07:02.175Z,24.77
2022-08-19T05:09:33.094Z,24.97
2022-08-19T05:12:19.082Z,25.21
2022-08-19T05:14:48.196Z,25.37
2022-08-19T05:17:37.457Z,25.50
2022-08-19T05:20:22.723Z,25.65
2022-08-19T05:22:50.105Z,25.89
2022-08-19T05:25:21.565Z,26.10
2022-08-19T05:27:49.369Z,26.27
2022-08-19T05:30:17.602Z,26.50
2022-08-19T05:32:44.993Z,26.78
2022-08-19T05:35:12.856Z,27.05
2022-08-19T05:37:43.441Z,27.28
2022-08-19T05:40:11.293Z,27.51
2022-08-19T05:42:40.008Z,27.72
2022-08-19T05:45:08.918Z,27.93
2022-08-19T05:47:36.666Z,28.12
2022-08-19T05:50:09.836Z,28.20
2022-08-19T05:52:39.187Z,28.35
2022-08-19T05:55:11.529Z,28.50
2022-08-19T05:57:40.341Z,28.69
2022-08-19T06:00:12.490Z,28.81
2022-08-19T06:02:40.552Z,28.95
2022-08-19T06:05:10.175Z,29.14
2022-08-19T06:07:37.988Z,29.36
2022-08-19T06:10:07.050Z,29.54
2022-08-19T06:12:36.559Z,29.67
2022-08-19T06:15:08.726Z,29.87
2022-08-19T06:17:36.296Z,29.80
2022-08-19T06:20:06.033Z,29.84
2022-08-19T06:22:38.217Z,30.01
2022-08-19T06:25:06.614Z,30.27
2022-08-19T06:27:34.561Z,30.59
2022-08-19T06:30:02.049Z,30.82
2022-08-19T06:32:31.237Z,31.11
2022-08-19T06:34:58.709Z,31.38
2022-08-19T06:37:26.113Z,31.62
2022-08-19T06:39:53.465Z,31.85
2022-08-19T06:42:21.721Z,32.12
2022-08-19T06:44:53.111Z,32.21
2022-08-19T06:47:23.385Z,32.31
2022-08-19T06:50:01.449Z,32.52
2022-08-19T06:52:31.605Z,32.64
2022-08-19T06:55:01.682Z,32.78
2022-08-19T06:57:34.515Z,32.95
2022-08-19T07:00:02.022Z,33.15
2022-08-19T07:02:29.528Z,33.35
2022-08-19T07:05:03.638Z,33.65
2022-08-19T07:07:34.451Z,33.86
2022-08-19T07:10:03.835Z,34.05
2022-08-19T07:12:38.147Z,34.02
2022-08-19T07:15:09.567Z,34.15
2022-08-19T07:17:39.116Z,34.19
2022-08-19T07:20:10.175Z,34.24
2022-08-19T07:22:37.590Z,34.33
2022-08-19T07:25:07.413Z,34.18
2022-08-19T07:27:35.514Z,34.23
2022-08-19T07:30:04.182Z,34.35
2022-08-19T07:32:32.619Z,34.60
2022-08-19T07:35:01.834Z,34.95
2022-08-19T07:37:33.408Z,35.24
2022-08-19T07:40:01.322Z,35.46
2022-08-19T07:42:30.894Z,35.52
2022-08-19T07:44:59.381Z,35.61
2022-08-19T07:47:47.415Z,35.85
2022-08-19T07:50:14.730Z,35.93
2022-08-19T07:52:48.975Z,35.99
2022-08-19T07:55:42.550Z,35.86
2022-08-19T07:58:10.604Z,35.77
2022-08-19T08:00:38.114Z,35.69
2022-08-19T08:03:05.369Z,35.81
2022-08-19T08:05:51.526Z,35.84
2022-08-19T08:08:43.871Z,35.67
2022-08-19T08:11:15.373Z,35.50
2022-08-19T08:13:43.230Z,35.47
2022-08-19T08:16:14.119Z,35.84
2022-08-19T08:18:50.393Z,36.12
2022-08-19T08:21:20.395Z,36.40
2022-08-19T08:23:49.050Z,36.69
2022-08-19T08:26:17.157Z,36.44
2022-08-19T08:28:49.549Z,36.46
2022-08-19T08:31:17.546Z,36.70
2022-08-19T08:33:44.806Z,36.76
2022-08-19T08:36:14.706Z,36.90
2022-08-19T08:38:43.081Z,37.11
2022-08-19T08:41:20.712Z,37.31
2022-08-19T08:43:52.201Z,37.27
2022-08-19T08:46:31.327Z,37.28
2022-08-19T08:49:06.854Z,37.50
2022-08-19T08:51:38.027Z,37.77
2022-08-19T08:54:09.883Z,38.05
2022-08-19T08:56:41.321Z,38.26
2022-08-19T08:59:13.999Z,38.35
2022-08-19T09:01:41.440Z,38.45
2022-08-19T09:04:09.081Z,38.60
2022-08-19T09:06:41.490Z,38.54
2022-08-19T09:09:17.966Z,38.65
2022-08-19T09:12:01.501Z,38.80
2022-08-19T09:14:50.616Z,38.97
2022-08-19T09:17:20.875Z,39.18
2022-08-19T09:19:55.494Z,39.31
2022-08-19T09:22:25.765Z,39.37
2022-08-19T09:24:55.041Z,39.42
2022-08-19T09:27:43.228Z,39.49
2022-08-19T09:30:17.563Z,39.77
2022-08-19T09:32:46.452Z,39.79
2022-08-19T09:35:15.222Z,39.77
2022-08-19T09:37:43.777Z,39.70
2022-08-19T09:40:13.752Z,39.27
2022-08-19T09:42:49.635Z,39.41
2022-08-19T09:45:21.671Z,39.76
2022-08-19T09:47:49.981Z,39.91
2022-08-19T09:50:17.885Z,39.78
2022-08-19T09:52:57.233Z,39.58
2022-08-19T09:55:31.774Z,39.83
2022-08-19T09:58:05.015Z,39.38
2022-08-19T10:00:32.399Z,38.77
2022-08-19T10:03:00.021Z,38.60
2022-08-19T10:05:48.553Z,38.77
2022-08-19T10:08:17.794Z,39.15
2022-08-19T10:10:46.732Z,39.38
2022-08-19T10:13:18.322Z,39.54
2022-08-19T10:15:48.153Z,39.81
2022-08-19T10:18:20.413Z,39.88
2022-08-19T10:20:51.855Z,40.03
2022-08-19T10:23:21.541Z,39.54
2022-08-19T10:25:49.216Z,39.07
2022-08-19T10:28:19.308Z,38.78
2022-08-19T10:30:48.631Z,38.50
2022-08-19T10:33:27.128Z,38.44
2022-08-19T10:36:05.621Z,38.86
2022-08-19T10:38:33.041Z,38.79
2022-08-19T10:41:08.439Z,38.37
2022-08-19T10:43:39.290Z,38.49
2022-08-19T10:46:13.721Z,38.49
2022-08-19T10:48:41.942Z,38.07
2022-08-19T10:51:28.853Z,37.81
2022-08-19T10:53:56.858Z,37.74
2022-08-19T10:56:42.922Z,37.95
2022-08-19T10:59:14.001Z,37.58
2022-08-19T11:01:42.677Z,37.54
2022-08-19T11:04:12.197Z,37.94
2022-08-19T11:06:39.590Z,38.42
2022-08-19T11:09:06.949Z,38.90
2022-08-19T11:11:41.958Z,39.21
2022-08-19T11:14:12.669Z,39.50
2022-08-19T11:16:40.779Z,39.78
2022-08-19T11:19:09.402Z,39.93
2022-08-19T11:21:39.025Z,40.00
2022-08-19T11:24:08.625Z,39.97
2022-08-19T11:26:37.062Z,40.00
2022-08-19T11:29:07.126Z,39.80
2022-08-19T11:31:37.219Z,39.59
2022-08-19T11:34:07.051Z,39.44
2022-08-19T11:36:35.465Z,39.62
2022-08-19T11:39:03.766Z,39.84
2022-08-19T11:41:30.897Z,39.92
2022-08-19T11:43:58.290Z,39.71
2022-08-19T11:46:26.897Z,39.22
2022-08-19T11:48:55.725Z,39.28
2022-08-19T11:51:25.685Z,39.24
2022-08-19T11:53:54.784Z,39.48
2022-08-19T11:56:22.914Z,39.70
2022-08-19T11:58:50.332Z,39.48
2022-08-19T12:01:19.971Z,39.00
2022-08-19T12:03:48.721Z,38.53
2022-08-19T12:06:20.678Z,38.20
2022-08-19T12:08:48.505Z,37.72
2022-08-19T12:11:16.104Z,37.40
2022-08-19T12:13:47.369Z,37.43
2022-08-19T12:16:17.213Z,37.95
2022-08-19T12:18:47.417Z,38.45
2022-08-19T12:21:15.398Z,38.73
2022-08-19T12:23:46.393Z,38.57
2022-08-19T12:26:14.127Z,38.17
2022-08-19T12:28:42.446Z,37.91
2022-08-19T12:31:13.064Z,37.80
2022-08-19T12:33:41.292Z,38.17
2022-08-19T12:36:13.287Z,38.56
2022-08-19T12:38:41.217Z,38.95
2022-08-19T12:41:12.208Z,39.25
2022-08-19T12:43:39.598Z,39.20
2022-08-19T12:46:07.458Z,39.18
2022-08-19T12:48:40.243Z,38.94
2022-08-19T12:51:11.210Z,38.68
2022-08-19T12:53:39.458Z,38.34
2022-08-19T12:56:08.959Z,37.99
2022-08-19T12:58:48.967Z,37.86
2022-08-19T13:01:22.034Z,38.17
2022-08-19T13:03:53.572Z,38.52
2022-08-19T13:06:22.485Z,38.86
2022-08-19T13:08:49.916Z,39.12
2022-08-19T13:11:19.395Z,39.25
2022-08-19T13:13:50.652Z,39.37
2022-08-19T13:16:19.070Z,39.37
2022-08-19T13:18:48.490Z,39.41
2022-08-19T13:21:16.121Z,39.34
2022-08-19T13:23:43.462Z,39.06
2022-08-19T13:26:12.497Z,38.78
2022-08-19T13:28:59.141Z,38.64
2022-08-19T13:31:49.886Z,38.64
2022-08-19T13:34:18.243Z,38.64
2022-08-19T13:36:45.801Z,38.62
2022-08-19T13:39:13.497Z,38.42
2022-08-19T13:41:48.971Z,38.00
2022-08-19T13:44:16.451Z,37.70
2022-08-19T13:46:46.142Z,37.55
2022-08-19T13:49:16.254Z,37.57
2022-08-19T13:51:44.061Z,37.86
2022-08-19T13:54:12.306Z,37.99
2022-08-19T13:56:41.887Z,38.00
2022-08-19T13:59:09.282Z,38.15
2022-08-19T14:01:36.623Z,38.27
2022-08-19T14:04:08.206Z,38.46
2022-08-19T14:06:35.692Z,38.60
2022-08-19T14:09:03.543Z,38.76
2022-08-19T14:11:31.048Z,38.78
2022-08-19T14:13:58.435Z,38.65
2022-08-19T14:16:25.832Z,38.31
2022-08-19T14:18:54.514Z,37.92
2022-08-19T14:21:24.674Z,37.65
2022-08-19T14:23:52.377Z,37.40
2022-08-19T14:26:20.769Z,37.18
2022-08-19T14:28:48.129Z,37.17
2022-08-19T14:31:19.905Z,37.37
2022-08-19T14:33:47.974Z,37.52
2022-08-19T14:36:15.518Z,37.58
2022-08-19T14:38:44.825Z,37.55
2022-08-19T14:41:17.277Z,37.54
2022-08-19T14:43:47.319Z,37.61
2022-08-19T14:46:15.806Z,37.53
2022-08-19T14:48:45.434Z,37.49
2022-08-19T14:51:12.759Z,37.37
2022-08-19T14:53:40.021Z,37.22
2022-08-19T14:56:13.885Z,36.91
2022-08-19T14:58:42.234Z,36.78
2022-08-19T15:01:10.534Z,36.79
2022-08-19T15:03:37.968Z,36.85
2022-08-19T15:06:06.857Z,36.85
2022-08-19T15:08:37.684Z,36.77
2022-08-19T15:11:10.627Z,36.75
2022-08-19T15:13:40.531Z,36.79
2022-08-19T15:16:17.700Z,36.78
2022-08-19T15:18:46.898Z,36.74
2022-08-19T15:21:27.005Z,36.61
2022-08-19T15:23:56.044Z,36.46
2022-08-19T15:26:23.545Z,36.31
2022-08-19T15:28:52.624Z,36.10
2022-08-19T15:31:28.036Z,35.97
2022-08-19T15:33:58.692Z,35.91
2022-08-19T15:36:27.172Z,35.82
2022-08-19T15:38:55.594Z,35.72
2022-08-19T15:41:25.970Z,35.60
2022-08-19T15:43:56.877Z,35.41
2022-08-19T15:46:26.934Z,35.35
2022-08-19T15:48:57.461Z,35.33
2022-08-19T15:51:30.473Z,35.29
2022-08-19T15:53:58.321Z,35.25
2022-08-19T15:56:27.634Z,35.19
2022-08-19T15:59:15.144Z,35.13
2022-08-19T16:02:01.218Z,35.05
2022-08-19T16:04:47.538Z,35.01
2022-08-19T16:07:15.070Z,34.94
2022-08-19T16:09:50.171Z,34.88
2022-08-19T16:12:18.998Z,34.84
2022-08-19T16:14:49.258Z,34.81
2022-08-19T16:17:16.852Z,34.77
2022-08-19T16:19:44.266Z,34.71
2022-08-19T16:22:11.407Z,34.64
2022-08-19T16:24:38.742Z,34.55
2022-08-19T16:27:06.194Z,34.47
2022-08-19T16:29:39.277Z,34.39
2022-08-19T16:32:13.218Z,34.32
2022-08-19T16:34:41.788Z,34.23
2022-08-19T16:37:10.044Z,34.15
2022-08-19T16:39:37.782Z,34.10
2022-08-19T16:42:07.754Z,34.03
2022-08-19T16:44:35.497Z,33.97
2022-08-19T16:47:02.912Z,33.90
2022-08-19T16:49:52.848Z,33.85
2022-08-19T16:52:19.927Z,33.76
2022-08-19T16:54:47.346Z,33.68
2022-08-19T16:57:14.786Z,33.58
2022-08-19T16:59:44.116Z,33.48
2022-08-19T17:02:17.129Z,33.38
2022-08-19T17:04:55.676Z,33.29
2022-08-19T17:07:25.257Z,33.18
2022-08-19T17:09:52.467Z,33.07
2022-08-19T17:12:19.679Z,32.96
2022-08-19T17:14:47.064Z,32.88
2022-08-19T17:17:14.751Z,32.78
2022-08-19T17:19:45.431Z,32.70
2022-08-19T17:22:13.210Z,32.63
2022-08-19T17:24:41.021Z,32.54
2022-08-19T17:27:09.086Z,32.46
2022-08-19T17:29:36.482Z,32.38
2022-08-19T17:32:05.396Z,32.28
2022-08-19T17:34:33.633Z,32.17
2022-08-19T17:37:02.287Z,32.06
2022-08-19T17:39:29.677Z,31.96
2022-08-19T17:41:57.133Z,31.84
2022-08-19T17:44:30.169Z,31.76
2022-08-19T17:46:57.432Z,31.65
2022-08-19T17:49:24.697Z,31.57
2022-08-19T17:51:52.305Z,31.49
2022-08-19T17:54:21.021Z,31.40
2022-08-19T17:56:48.396Z,31.32
2022-08-19T17:59:16.569Z,31.23
2022-08-19T18:01:54.187Z,31.14
2022-08-19T18:04:22.887Z,31.03
2022-08-19T18:06:52.962Z,30.96
2022-08-19T18:09:25.123Z,30.91
2022-08-19T18:11:54.397Z,30.84
2022-08-19T18:14:32.249Z,30.77
2022-08-19T18:17:02.314Z,30.70
2022-08-19T18:19:34.210Z,30.64
2022-08-19T18:22:09.593Z,30.55
2022-08-19T18:24:40.550Z,30.50
2022-08-19T18:27:07.735Z,30.42
2022-08-19T18:29:37.527Z,30.34
2022-08-19T18:32:05.961Z,30.21
2022-08-19T18:34:36.647Z,30.11
2022-08-19T18:37:03.922Z,30.04
2022-08-19T18:39:50.115Z,29.96
2022-08-19T18:42:37.289Z,29.88
2022-08-19T18:45:23.720Z,29.74
2022-08-19T18:48:27.081Z,29.56
2022-08-19T18:50:57.268Z,29.34
2022-08-19T18:53:25.306Z,29.23
2022-08-19T18:55:54.009Z,29.17
2022-08-19T18:58:26.339Z,29.09
2022-08-19T19:00:56.974Z,29.02
2022-08-19T19:03:25.531Z,28.92
2022-08-19T19:05:53.661Z,28.81
2022-08-19T19:08:27.391Z,28.69
2022-08-19T19:10:56.177Z,28.58
2022-08-19T19:13:24.902Z,28.49
2022-08-19T19:15:52.332Z,28.34
2022-08-19T19:18:19.446Z,28.20
2022-08-19T19:20:46.725Z,28.11
2022-08-19T19:23:13.924Z,28.03
2022-08-19T19:25:50.474Z,27.98
2022-08-19T19:28:25.413Z,27.93
2022-08-19T19:30:58.527Z,27.88
2022-08-19T19:33:26.740Z,27.83
2022-08-19T19:35:54.299Z,27.75
2022-08-19T19:38:21.579Z,27.71
2022-08-19T19:40:48.802Z,27.64
2022-08-19T19:43:17.201Z,27.59
2022-08-19T19:45:46.025Z,27.53
2022-08-19T19:48:15.608Z,27.47
2022-08-19T19:50:43.142Z,27.44
2022-08-19T19:53:10.442Z,27.37
2022-08-19T19:55:37.773Z,27.33
2022-08-19T19:58:06.975Z,27.29
2022-08-19T20:00:34.364Z,27.27
2022-08-19T20:03:01.831Z,27.22
2022-08-19T20:05:30.407Z,27.19
2022-08-19T20:08:16.501Z,27.12
2022-08-19T20:10:46.952Z,26.94
2022-08-19T20:13:16.785Z,26.87
2022-08-19T20:15:44.074Z,26.83
2022-08-19T20:18:14.372Z,26.77
2022-08-19T20:20:45.093Z,26.75
2022-08-19T20:23:13.028Z,26.74
2022-08-19T20:25:40.293Z,26.69
2022-08-19T20:28:07.664Z,26.57
2022-08-19T20:30:36.385Z,26.39
2022-08-19T20:33:07.482Z,26.30
2022-08-19T20:35:36.196Z,26.27
2022-08-19T20:38:08.788Z,26.26
2022-08-19T20:40:37.834Z,26.22
2022-08-19T20:43:08.438Z,26.20
2022-08-19T20:45:36.903Z,26.19
2022-08-19T20:48:06.071Z,26.15
2022-08-19T20:50:35.321Z,26.09
2022-08-19T20:53:11.221Z,26.02
2022-08-19T20:55:38.898Z,25.98
2022-08-19T20:58:06.102Z,25.95
2022-08-19T21:00:33.574Z,25.86
2022-08-19T21:03:00.869Z,25.82
2022-08-19T21:05:30.596Z,25.80
2022-08-19T21:07:58.312Z,25.78
2022-08-19T21:10:27.584Z,25.72
2022-08-19T21:12:55.575Z,25.65
2022-08-19T21:15:24.651Z,25.60
2022-08-19T21:17:52.077Z,25.57
2022-08-19T21:20:19.551Z,25.55
2022-08-19T21:22:46.766Z,25.51
2022-08-19T21:25:15.989Z,25.45
2022-08-19T21:27:44.505Z,25.37
2022-08-19T21:30:13.089Z,25.29
2022-08-19T21:32:40.410Z,25.25
2022-08-19T21:35:08.420Z,25.20
2022-08-19T21:37:36.453Z,25.13
2022-08-19T21:40:04.778Z,25.08
2022-08-19T21:42:31.964Z,25.06
2022-08-19T21:45:00.981Z,25.02
2022-08-19T21:47:28.244Z,24.99
2022-08-19T21:49:55.488Z,24.96
2022-08-19T21:52:23.310Z,24.96
2022-08-19T21:54:50.927Z,24.88
2022-08-19T21:57:18.193Z,24.80
2022-08-19T21:59:45.374Z,24.78
2022-08-19T22:02:21.954Z,24.69
2022-08-19T22:04:49.855Z,24.66
2022-08-19T22:07:17.918Z,24.68
2022-08-19T22:09:46.983Z,24.67
2022-08-19T22:12:23.455Z,24.66
2022-08-19T22:14:51.974Z,24.64
2022-08-19T22:17:21.402Z,24.60
2022-08-19T22:19:49.095Z,24.60
2022-08-19T22:22:21.453Z,24.59
2022-08-19T22:24:48.729Z,24.57
2022-08-19T22:27:16.044Z,24.54
2022-08-19T22:29:43.714Z,24.52
2022-08-19T22:32:11.200Z,24.49
2022-08-19T22:34:58.100Z,24.44
2022-08-19T22:37:25.534Z,24.41
2022-08-19T22:39:52.926Z,24.39
2022-08-19T22:42:20.713Z,24.35
2022-08-19T22:44:48.848Z,24.33
2022-08-19T22:47:16.203Z,24.31
2022-08-19T22:49:43.633Z,24.27
2022-08-19T22:52:17.545Z,24.24
2022-08-19T22:54:46.681Z,24.22
2022-08-19T22:57:14.336Z,24.19
2022-08-19T22:59:41.746Z,24.17
2022-08-19T23:02:09.588Z,24.15
2022-08-19T23:04:37.054Z,24.13
2022-08-19T23:07:04.696Z,24.09
2022-08-19T23:09:33.304Z,24.04
2022-08-19T23:12:00.745Z,24.03
2022-08-19T23:14:28.215Z,24.01
2022-08-19T23:16:58.853Z,23.98
2022-08-19T23:19:26.870Z,23.94
2022-08-19T23:21:54.149Z,23.87
2022-08-19T23:24:21.289Z,23.80
2022-08-19T23:27:08.374Z,23.75
2022-08-19T23:29:54.130Z,23.72
2022-08-19T23:32:25.591Z,23.66
2022-08-19T23:34:54.753Z,23.57
2022-08-19T23:37:22.048Z,23.58
2022-08-19T23:39:52.524Z,23.57
2022-08-19T23:42:21.150Z,23.57
2022-08-19T23:44:51.228Z,23.55
2022-08-19T23:47:20.129Z,23.52
2022-08-19T23:49:48.702Z,23.49
2022-08-19T23:52:15.998Z,23.48
2022-08-19T23:54:44.079Z,23.44
2022-08-19T23:57:13.226Z,23.42
2022-08-19T23:59:45.288Z,23.39
